sensor_id;sensor_type;location;lat;lon;timestamp;P1;durP1;ratioP1;P2;durP2;ratioP2
2602;SDS011;1311;47.966;7.958;2024-02-21T00:00:49;5.23;;;3.13;;
2602;SDS011;1311;47.966;7.958;2024-02-21T00:03:15;4.13;;;2.80;;
2602;SDS011;1311;47.966;7.958;2024-02-21T00:05:42;3.30;;;2.00;;
2602;SDS011;1311;47.966;7.958;2024-02-21T00:08:09;3.70;;;2.50;;
2602;SDS011;1311;47.966;7.958;2024-02-21T00:10:37;2.37;;;2.10;;
2602;SDS011;1311;47.966;7.958;2024-02-21T00:13:04;3.53;;;2.27;;
2602;SDS011;1311;47.966;7.958;2024-02-21T00:15:30;6.57;;;2.80;;
2602;SDS011;1311;47.966;7.958;2024-02-21T00:17:57;5.53;;;2.53;;
2602;SDS011;1311;47.966;7.958;2024-02-21T00:20:24;3.37;;;2.30;;
2602;SDS011;1311;47.966;7.958;2024-02-21T00:22:51;4.70;;;2.33;;
2602;SDS011;1311;47.966;7.958;2024-02-21T00:25:18;3.03;;;1.90;;
2602;SDS011;1311;47.966;7.958;2024-02-21T00:27:46;4.47;;;1.90;;
2602;SDS011;1311;47.966;7.958;2024-02-21T00:30:13;4.13;;;2.33;;
2602;SDS011;1311;47.966;7.958;2024-02-21T00:32:39;7.13;;;2.30;;
2602;SDS011;1311;47.966;7.958;2024-02-21T00:35:06;4.20;;;2.67;;
2602;SDS011;1311;47.966;7.958;2024-02-21T00:37:34;2.57;;;1.90;;
2602;SDS011;1311;47.966;7.958;2024-02-21T00:40:00;4.20;;;2.53;;
2602;SDS011;1311;47.966;7.958;2024-02-21T00:42:27;9.30;;;2.90;;
2602;SDS011;1311;47.966;7.958;2024-02-21T00:44:55;4.40;;;2.30;;
2602;SDS011;1311;47.966;7.958;2024-02-21T00:47:22;5.20;;;2.07;;
2602;SDS011;1311;47.966;7.958;2024-02-21T00:49:48;4.47;;;2.40;;
2602;SDS011;1311;47.966;7.958;2024-02-21T00:52:15;2.53;;;2.33;;
2602;SDS011;1311;47.966;7.958;2024-02-21T00:54:42;3.67;;;2.00;;
2602;SDS011;1311;47.966;7.958;2024-02-21T00:57:08;5.50;;;2.43;;
2602;SDS011;1311;47.966;7.958;2024-02-21T00:59:35;9.33;;;3.00;;
2602;SDS011;1311;47.966;7.958;2024-02-21T01:02:03;2.60;;;1.93;;
2602;SDS011;1311;47.966;7.958;2024-02-21T01:04:30;7.77;;;2.03;;
2602;SDS011;1311;47.966;7.958;2024-02-21T01:06:57;2.40;;;2.10;;
2602;SDS011;1311;47.966;7.958;2024-02-21T01:09:23;4.60;;;2.20;;
2602;SDS011;1311;47.966;7.958;2024-02-21T01:11:50;3.57;;;2.30;;
2602;SDS011;1311;47.966;7.958;2024-02-21T01:14:17;7.23;;;2.70;;
2602;SDS011;1311;47.966;7.958;2024-02-21T01:16:44;2.43;;;1.90;;
2602;SDS011;1311;47.966;7.958;2024-02-21T01:19:12;2.97;;;2.00;;
2602;SDS011;1311;47.966;7.958;2024-02-21T01:21:38;3.50;;;2.30;;
2602;SDS011;1311;47.966;7.958;2024-02-21T01:24:05;4.53;;;2.77;;
2602;SDS011;1311;47.966;7.958;2024-02-21T01:26:32;6.57;;;3.10;;
2602;SDS011;1311;47.966;7.958;2024-02-21T01:28:59;3.03;;;2.00;;
2602;SDS011;1311;47.966;7.958;2024-02-21T01:31:25;4.13;;;2.50;;
2602;SDS011;1311;47.966;7.958;2024-02-21T01:33:52;2.60;;;1.90;;
2602;SDS011;1311;47.966;7.958;2024-02-21T01:36:20;2.33;;;2.03;;
2602;SDS011;1311;47.966;7.958;2024-02-21T01:38:47;2.33;;;2.00;;
2602;SDS011;1311;47.966;7.958;2024-02-21T01:41:13;4.53;;;2.80;;
2602;SDS011;1311;47.966;7.958;2024-02-21T01:43:41;3.03;;;2.30;;
2602;SDS011;1311;47.966;7.958;2024-02-21T01:46:08;3.83;;;2.43;;
2602;SDS011;1311;47.966;7.958;2024-02-21T01:48:34;2.80;;;2.20;;
2602;SDS011;1311;47.966;7.958;2024-02-21T01:51:01;7.50;;;2.70;;
2602;SDS011;1311;47.966;7.958;2024-02-21T01:53:36;4.60;;;2.50;;
2602;SDS011;1311;47.966;7.958;2024-02-21T01:56:07;7.00;;;2.50;;
2602;SDS011;1311;47.966;7.958;2024-02-21T01:58:34;5.30;;;2.50;;
2602;SDS011;1311;47.966;7.958;2024-02-21T02:01:03;5.80;;;2.23;;
2602;SDS011;1311;47.966;7.958;2024-02-21T02:03:30;4.30;;;2.03;;
2602;SDS011;1311;47.966;7.958;2024-02-21T02:05:57;4.07;;;2.43;;
2602;SDS011;1311;47.966;7.958;2024-02-21T02:08:24;2.50;;;2.10;;
2602;SDS011;1311;47.966;7.958;2024-02-21T02:10:52;3.13;;;2.23;;
2602;SDS011;1311;47.966;7.958;2024-02-21T02:13:19;6.33;;;2.50;;
2602;SDS011;1311;47.966;7.958;2024-02-21T02:15:47;3.57;;;2.07;;
2602;SDS011;1311;47.966;7.958;2024-02-21T02:18:15;2.93;;;2.03;;
2602;SDS011;1311;47.966;7.958;2024-02-21T02:20:43;2.50;;;1.90;;
2602;SDS011;1311;47.966;7.958;2024-02-21T02:23:11;2.20;;;1.73;;
2602;SDS011;1311;47.966;7.958;2024-02-21T02:25:41;2.20;;;2.00;;
2602;SDS011;1311;47.966;7.958;2024-02-21T02:28:08;5.07;;;1.67;;
2602;SDS011;1311;47.966;7.958;2024-02-21T02:30:35;2.40;;;1.63;;
2602;SDS011;1311;47.966;7.958;2024-02-21T02:33:02;3.97;;;1.50;;
2602;SDS011;1311;47.966;7.958;2024-02-21T02:35:29;3.70;;;1.73;;
2602;SDS011;1311;47.966;7.958;2024-02-21T02:37:56;4.00;;;2.07;;
2602;SDS011;1311;47.966;7.958;2024-02-21T02:40:23;2.97;;;1.90;;
2602;SDS011;1311;47.966;7.958;2024-02-21T02:42:52;4.60;;;2.87;;
2602;SDS011;1311;47.966;7.958;2024-02-21T02:45:20;4.83;;;1.87;;
2602;SDS011;1311;47.966;7.958;2024-02-21T02:47:48;2.03;;;1.60;;
2602;SDS011;1311;47.966;7.958;2024-02-21T02:50:15;3.87;;;2.43;;
2602;SDS011;1311;47.966;7.958;2024-02-21T02:52:42;4.80;;;2.10;;
2602;SDS011;1311;47.966;7.958;2024-02-21T02:55:09;6.83;;;2.10;;
2602;SDS011;1311;47.966;7.958;2024-02-21T02:57:35;7.33;;;2.27;;
2602;SDS011;1311;47.966;7.958;2024-02-21T03:00:04;4.40;;;2.10;;
2602;SDS011;1311;47.966;7.958;2024-02-21T03:02:32;4.67;;;2.43;;
2602;SDS011;1311;47.966;7.958;2024-02-21T03:04:59;4.33;;;2.20;;
2602;SDS011;1311;47.966;7.958;2024-02-21T03:07:26;6.80;;;2.43;;
2602;SDS011;1311;47.966;7.958;2024-02-21T03:09:53;4.50;;;2.50;;
2602;SDS011;1311;47.966;7.958;2024-02-21T03:12:19;6.20;;;2.80;;
2602;SDS011;1311;47.966;7.958;2024-02-21T03:14:52;3.60;;;2.30;;
2602;SDS011;1311;47.966;7.958;2024-02-21T03:17:20;8.93;;;2.57;;
2602;SDS011;1311;47.966;7.958;2024-02-21T03:19:48;2.47;;;2.00;;
2602;SDS011;1311;47.966;7.958;2024-02-21T03:22:15;2.23;;;2.03;;
2602;SDS011;1311;47.966;7.958;2024-02-21T03:24:41;3.63;;;2.00;;
2602;SDS011;1311;47.966;7.958;2024-02-21T03:27:08;2.03;;;1.60;;
2602;SDS011;1311;47.966;7.958;2024-02-21T03:29:35;3.20;;;1.70;;
2602;SDS011;1311;47.966;7.958;2024-02-21T03:32:02;2.20;;;1.67;;
2602;SDS011;1311;47.966;7.958;2024-02-21T03:34:30;4.00;;;1.90;;
2602;SDS011;1311;47.966;7.958;2024-02-21T03:36:57;3.60;;;2.20;;
2602;SDS011;1311;47.966;7.958;2024-02-21T03:39:25;3.67;;;2.00;;
2602;SDS011;1311;47.966;7.958;2024-02-21T03:41:51;2.87;;;1.83;;
2602;SDS011;1311;47.966;7.958;2024-02-21T03:44:18;3.50;;;1.83;;
2602;SDS011;1311;47.966;7.958;2024-02-21T03:46:45;10.73;;;2.10;;
2602;SDS011;1311;47.966;7.958;2024-02-21T03:49:12;4.53;;;1.70;;
2602;SDS011;1311;47.966;7.958;2024-02-21T03:51:40;5.30;;;2.20;;
2602;SDS011;1311;47.966;7.958;2024-02-21T03:54:06;2.93;;;1.27;;
2602;SDS011;1311;47.966;7.958;2024-02-21T03:56:36;2.23;;;2.00;;
2602;SDS011;1311;47.966;7.958;2024-02-21T03:59:04;2.60;;;1.70;;
2602;SDS011;1311;47.966;7.958;2024-02-21T04:01:31;3.07;;;2.20;;
2602;SDS011;1311;47.966;7.958;2024-02-21T04:03:58;1.50;;;1.40;;
2602;SDS011;1311;47.966;7.958;2024-02-21T04:06:25;9.90;;;2.90;;
2602;SDS011;1311;47.966;7.958;2024-02-21T04:08:53;8.30;;;3.13;;
2602;SDS011;1311;47.966;7.958;2024-02-21T04:11:20;12.47;;;3.70;;
2602;SDS011;1311;47.966;7.958;2024-02-21T04:13:46;6.80;;;3.57;;
2602;SDS011;1311;47.966;7.958;2024-02-21T04:16:13;10.60;;;4.67;;
2602;SDS011;1311;47.966;7.958;2024-02-21T04:18:40;9.90;;;3.67;;
2602;SDS011;1311;47.966;7.958;2024-02-21T04:21:07;8.70;;;3.37;;
2602;SDS011;1311;47.966;7.958;2024-02-21T04:23:34;5.13;;;2.73;;
2602;SDS011;1311;47.966;7.958;2024-02-21T04:26:02;6.00;;;3.50;;
2602;SDS011;1311;47.966;7.958;2024-02-21T04:28:29;13.63;;;4.13;;
2602;SDS011;1311;47.966;7.958;2024-02-21T04:30:56;9.17;;;4.03;;
2602;SDS011;1311;47.966;7.958;2024-02-21T04:33:23;6.57;;;4.07;;
2602;SDS011;1311;47.966;7.958;2024-02-21T04:35:49;7.27;;;3.43;;
2602;SDS011;1311;47.966;7.958;2024-02-21T04:38:16;4.27;;;2.23;;
2602;SDS011;1311;47.966;7.958;2024-02-21T04:40:43;3.53;;;1.80;;
2602;SDS011;1311;47.966;7.958;2024-02-21T04:43:11;3.57;;;1.60;;
2602;SDS011;1311;47.966;7.958;2024-02-21T04:45:38;3.03;;;1.70;;
2602;SDS011;1311;47.966;7.958;2024-02-21T04:48:05;3.37;;;1.77;;
2602;SDS011;1311;47.966;7.958;2024-02-21T04:50:32;2.47;;;1.23;;
2602;SDS011;1311;47.966;7.958;2024-02-21T04:52:59;4.70;;;2.20;;
2602;SDS011;1311;47.966;7.958;2024-02-21T04:55:25;7.10;;;2.30;;
2602;SDS011;1311;47.966;7.958;2024-02-21T04:57:52;6.20;;;2.30;;
2602;SDS011;1311;47.966;7.958;2024-02-21T05:00:20;2.73;;;2.10;;
2602;SDS011;1311;47.966;7.958;2024-02-21T05:02:47;3.07;;;1.93;;
2602;SDS011;1311;47.966;7.958;2024-02-21T05:05:14;2.63;;;1.90;;
2602;SDS011;1311;47.966;7.958;2024-02-21T05:07:42;2.80;;;1.80;;
2602;SDS011;1311;47.966;7.958;2024-02-21T05:10:09;2.47;;;1.90;;
2602;SDS011;1311;47.966;7.958;2024-02-21T05:12:35;2.13;;;1.53;;
2602;SDS011;1311;47.966;7.958;2024-02-21T05:15:02;5.60;;;2.20;;
2602;SDS011;1311;47.966;7.958;2024-02-21T05:17:31;2.50;;;2.30;;
2602;SDS011;1311;47.966;7.958;2024-02-21T05:19:58;3.87;;;2.00;;
2602;SDS011;1311;47.966;7.958;2024-02-21T05:22:24;2.60;;;2.00;;
2602;SDS011;1311;47.966;7.958;2024-02-21T05:24:51;6.03;;;2.17;;
2602;SDS011;1311;47.966;7.958;2024-02-21T05:27:18;2.57;;;2.10;;
2602;SDS011;1311;47.966;7.958;2024-02-21T05:29:44;3.80;;;2.43;;
2602;SDS011;1311;47.966;7.958;2024-02-21T05:32:11;5.20;;;2.70;;
2602;SDS011;1311;47.966;7.958;2024-02-21T05:34:39;5.30;;;3.00;;
2602;SDS011;1311;47.966;7.958;2024-02-21T05:37:06;5.53;;;3.20;;
2602;SDS011;1311;47.966;7.958;2024-02-21T05:39:33;3.70;;;2.50;;
2602;SDS011;1311;47.966;7.958;2024-02-21T05:41:59;7.70;;;3.50;;
2602;SDS011;1311;47.966;7.958;2024-02-21T05:44:26;4.10;;;2.70;;
2602;SDS011;1311;47.966;7.958;2024-02-21T05:46:53;2.87;;;2.60;;
2602;SDS011;1311;47.966;7.958;2024-02-21T05:49:20;5.37;;;3.27;;
2602;SDS011;1311;47.966;7.958;2024-02-21T05:51:48;5.10;;;3.20;;
2602;SDS011;1311;47.966;7.958;2024-02-21T05:54:15;5.10;;;2.67;;
2602;SDS011;1311;47.966;7.958;2024-02-21T05:56:43;3.87;;;2.83;;
2602;SDS011;1311;47.966;7.958;2024-02-21T05:59:10;4.90;;;2.80;;
2602;SDS011;1311;47.966;7.958;2024-02-21T06:01:37;3.10;;;2.30;;
2602;SDS011;1311;47.966;7.958;2024-02-21T06:04:04;7.07;;;3.50;;
2602;SDS011;1311;47.966;7.958;2024-02-21T06:06:31;7.23;;;2.93;;
2602;SDS011;1311;47.966;7.958;2024-02-21T06:08:59;4.50;;;2.90;;
2602;SDS011;1311;47.966;7.958;2024-02-21T06:11:27;2.87;;;2.53;;
2602;SDS011;1311;47.966;7.958;2024-02-21T06:13:54;3.10;;;2.20;;
2602;SDS011;1311;47.966;7.958;2024-02-21T06:16:22;3.00;;;2.10;;
2602;SDS011;1311;47.966;7.958;2024-02-21T06:18:49;2.83;;;2.00;;
2602;SDS011;1311;47.966;7.958;2024-02-21T06:21:15;2.80;;;2.07;;
2602;SDS011;1311;47.966;7.958;2024-02-21T06:23:42;5.87;;;3.87;;
2602;SDS011;1311;47.966;7.958;2024-02-21T06:26:10;5.83;;;3.90;;
2602;SDS011;1311;47.966;7.958;2024-02-21T06:31:05;6.33;;;3.83;;
2602;SDS011;1311;47.966;7.958;2024-02-21T06:33:32;3.87;;;3.07;;
2602;SDS011;1311;47.966;7.958;2024-02-21T06:35:58;4.77;;;3.17;;
2602;SDS011;1311;47.966;7.958;2024-02-21T06:38:25;4.00;;;2.37;;
2602;SDS011;1311;47.966;7.958;2024-02-21T06:40:52;3.87;;;2.10;;
2602;SDS011;1311;47.966;7.958;2024-02-21T06:43:21;3.70;;;2.23;;
2602;SDS011;1311;47.966;7.958;2024-02-21T06:45:47;3.50;;;2.50;;
2602;SDS011;1311;47.966;7.958;2024-02-21T06:48:16;4.37;;;1.97;;
2602;SDS011;1311;47.966;7.958;2024-02-21T06:50:43;3.37;;;1.80;;
2602;SDS011;1311;47.966;7.958;2024-02-21T06:53:10;7.20;;;2.60;;
2602;SDS011;1311;47.966;7.958;2024-02-21T06:55:37;3.00;;;2.27;;
2602;SDS011;1311;47.966;7.958;2024-02-21T06:58:03;5.23;;;2.80;;
2602;SDS011;1311;47.966;7.958;2024-02-21T07:00:34;5.20;;;1.83;;
2602;SDS011;1311;47.966;7.958;2024-02-21T07:03:00;2.80;;;2.10;;
2602;SDS011;1311;47.966;7.958;2024-02-21T07:05:27;2.10;;;1.73;;
2602;SDS011;1311;47.966;7.958;2024-02-21T07:07:54;3.47;;;1.70;;
2602;SDS011;1311;47.966;7.958;2024-02-21T07:10:21;3.50;;;2.10;;
2602;SDS011;1311;47.966;7.958;2024-02-21T07:12:47;2.50;;;1.87;;
2602;SDS011;1311;47.966;7.958;2024-02-21T07:15:14;4.37;;;1.73;;
2602;SDS011;1311;47.966;7.958;2024-02-21T07:17:42;4.20;;;1.97;;
2602;SDS011;1311;47.966;7.958;2024-02-21T07:20:09;4.83;;;1.80;;
2602;SDS011;1311;47.966;7.958;2024-02-21T07:22:36;5.27;;;1.53;;
2602;SDS011;1311;47.966;7.958;2024-02-21T07:25:03;3.63;;;2.10;;
2602;SDS011;1311;47.966;7.958;2024-02-21T07:27:31;1.83;;;1.70;;
2602;SDS011;1311;47.966;7.958;2024-02-21T07:29:58;3.53;;;1.80;;
2602;SDS011;1311;47.966;7.958;2024-02-21T07:32:25;2.50;;;1.43;;
2602;SDS011;1311;47.966;7.958;2024-02-21T07:34:53;8.93;;;1.90;;
2602;SDS011;1311;47.966;7.958;2024-02-21T07:37:19;1.60;;;1.47;;
2602;SDS011;1311;47.966;7.958;2024-02-21T07:39:46;5.80;;;2.00;;
2602;SDS011;1311;47.966;7.958;2024-02-21T07:42:13;3.30;;;1.93;;
2602;SDS011;1311;47.966;7.958;2024-02-21T07:44:40;2.60;;;2.00;;
2602;SDS011;1311;47.966;7.958;2024-02-21T07:47:07;2.30;;;1.67;;
2602;SDS011;1311;47.966;7.958;2024-02-21T07:49:40;2.30;;;2.10;;
2602;SDS011;1311;47.966;7.958;2024-02-21T07:52:08;4.33;;;2.10;;
2602;SDS011;1311;47.966;7.958;2024-02-21T07:54:35;3.97;;;2.27;;
2602;SDS011;1311;47.966;7.958;2024-02-21T07:57:02;4.13;;;2.00;;
2602;SDS011;1311;47.966;7.958;2024-02-21T07:59:29;6.00;;;2.10;;
2602;SDS011;1311;47.966;7.958;2024-02-21T08:01:56;2.17;;;1.50;;
2602;SDS011;1311;47.966;7.958;2024-02-21T08:04:23;3.80;;;1.90;;
2602;SDS011;1311;47.966;7.958;2024-02-21T08:06:51;5.20;;;1.90;;
2602;SDS011;1311;47.966;7.958;2024-02-21T08:09:19;3.93;;;2.40;;
2602;SDS011;1311;47.966;7.958;2024-02-21T08:11:46;2.40;;;1.93;;
2602;SDS011;1311;47.966;7.958;2024-02-21T08:14:13;5.40;;;2.30;;
2602;SDS011;1311;47.966;7.958;2024-02-21T08:16:41;3.07;;;2.00;;
2602;SDS011;1311;47.966;7.958;2024-02-21T08:19:07;4.40;;;2.70;;
2602;SDS011;1311;47.966;7.958;2024-02-21T08:21:35;3.40;;;2.00;;
2602;SDS011;1311;47.966;7.958;2024-02-21T08:24:02;6.80;;;2.77;;
2602;SDS011;1311;47.966;7.958;2024-02-21T08:26:30;3.47;;;2.73;;
2602;SDS011;1311;47.966;7.958;2024-02-21T08:28:57;8.80;;;2.70;;
2602;SDS011;1311;47.966;7.958;2024-02-21T08:31:25;6.33;;;3.07;;
2602;SDS011;1311;47.966;7.958;2024-02-21T08:33:56;6.37;;;3.33;;
2602;SDS011;1311;47.966;7.958;2024-02-21T08:36:27;5.57;;;2.47;;
2602;SDS011;1311;47.966;7.958;2024-02-21T08:38:54;5.30;;;2.63;;
2602;SDS011;1311;47.966;7.958;2024-02-21T08:41:21;5.10;;;2.60;;
2602;SDS011;1311;47.966;7.958;2024-02-21T08:43:50;2.40;;;2.20;;
2602;SDS011;1311;47.966;7.958;2024-02-21T08:46:18;2.83;;;2.10;;
2602;SDS011;1311;47.966;7.958;2024-02-21T08:48:45;3.70;;;2.00;;
2602;SDS011;1311;47.966;7.958;2024-02-21T08:51:12;1.60;;;1.50;;
2602;SDS011;1311;47.966;7.958;2024-02-21T08:53:39;2.70;;;1.57;;
2602;SDS011;1311;47.966;7.958;2024-02-21T08:56:06;1.60;;;1.50;;
2602;SDS011;1311;47.966;7.958;2024-02-21T08:58:34;1.87;;;1.77;;
2602;SDS011;1311;47.966;7.958;2024-02-21T09:01:04;1.87;;;1.43;;
2602;SDS011;1311;47.966;7.958;2024-02-21T09:03:31;2.47;;;1.50;;
2602;SDS011;1311;47.966;7.958;2024-02-21T09:05:58;2.00;;;1.40;;
2602;SDS011;1311;47.966;7.958;2024-02-21T09:08:25;4.20;;;1.70;;
2602;SDS011;1311;47.966;7.958;2024-02-21T09:10:52;2.73;;;2.00;;
2602;SDS011;1311;47.966;7.958;2024-02-21T09:13:19;3.53;;;1.50;;
2602;SDS011;1311;47.966;7.958;2024-02-21T09:15:46;3.37;;;1.90;;
2602;SDS011;1311;47.966;7.958;2024-02-21T09:18:15;3.23;;;1.67;;
2602;SDS011;1311;47.966;7.958;2024-02-21T09:20:42;2.03;;;1.70;;
2602;SDS011;1311;47.966;7.958;2024-02-21T09:23:09;3.37;;;1.20;;
2602;SDS011;1311;47.966;7.958;2024-02-21T09:25:36;3.77;;;1.60;;
2602;SDS011;1311;47.966;7.958;2024-02-21T09:28:02;1.20;;;1.10;;
2602;SDS011;1311;47.966;7.958;2024-02-21T09:30:31;6.60;;;1.50;;
2602;SDS011;1311;47.966;7.958;2024-02-21T09:32:58;3.70;;;1.23;;
2602;SDS011;1311;47.966;7.958;2024-02-21T09:35:27;3.43;;;1.33;;
2602;SDS011;1311;47.966;7.958;2024-02-21T09:37:54;1.50;;;1.30;;
2602;SDS011;1311;47.966;7.958;2024-02-21T09:40:21;2.33;;;1.30;;
2602;SDS011;1311;47.966;7.958;2024-02-21T09:42:48;1.43;;;1.33;;
2602;SDS011;1311;47.966;7.958;2024-02-21T09:45:22;3.03;;;1.63;;
2602;SDS011;1311;47.966;7.958;2024-02-21T09:47:50;4.40;;;1.57;;
2602;SDS011;1311;47.966;7.958;2024-02-21T09:50:39;1.80;;;1.40;;
2602;SDS011;1311;47.966;7.958;2024-02-21T09:53:07;2.60;;;1.67;;
2602;SDS011;1311;47.966;7.958;2024-02-21T09:55:34;2.37;;;1.47;;
2602;SDS011;1311;47.966;7.958;2024-02-21T09:58:05;5.23;;;1.70;;
2602;SDS011;1311;47.966;7.958;2024-02-21T10:00:33;2.53;;;1.70;;
2602;SDS011;1311;47.966;7.958;2024-02-21T10:03:01;5.23;;;1.63;;
2602;SDS011;1311;47.966;7.958;2024-02-21T10:05:30;2.70;;;1.57;;
2602;SDS011;1311;47.966;7.958;2024-02-21T10:07:58;1.97;;;1.60;;
2602;SDS011;1311;47.966;7.958;2024-02-21T10:10:25;2.17;;;1.40;;
2602;SDS011;1311;47.966;7.958;2024-02-21T10:12:52;3.57;;;1.60;;
2602;SDS011;1311;47.966;7.958;2024-02-21T10:15:20;2.67;;;1.60;;
2602;SDS011;1311;47.966;7.958;2024-02-21T10:17:48;3.40;;;2.00;;
2602;SDS011;1311;47.966;7.958;2024-02-21T10:20:15;2.33;;;1.80;;
2602;SDS011;1311;47.966;7.958;2024-02-21T10:22:42;4.20;;;2.07;;
2602;SDS011;1311;47.966;7.958;2024-02-21T10:25:11;1.53;;;1.40;;
2602;SDS011;1311;47.966;7.958;2024-02-21T10:27:39;3.47;;;1.70;;
2602;SDS011;1311;47.966;7.958;2024-02-21T10:30:07;4.40;;;2.30;;
2602;SDS011;1311;47.966;7.958;2024-02-21T10:32:48;5.00;;;2.03;;
2602;SDS011;1311;47.966;7.958;2024-02-21T10:35:24;4.70;;;2.30;;
2602;SDS011;1311;47.966;7.958;2024-02-21T10:37:52;6.13;;;2.30;;
2602;SDS011;1311;47.966;7.958;2024-02-21T10:40:22;5.00;;;2.50;;
2602;SDS011;1311;47.966;7.958;2024-02-21T10:42:50;4.60;;;2.70;;
2602;SDS011;1311;47.966;7.958;2024-02-21T10:45:22;5.17;;;2.47;;
2602;SDS011;1311;47.966;7.958;2024-02-21T10:47:55;5.77;;;2.30;;
2602;SDS011;1311;47.966;7.958;2024-02-21T10:50:26;4.07;;;2.50;;
2602;SDS011;1311;47.966;7.958;2024-02-21T10:53:01;2.83;;;1.93;;
2602;SDS011;1311;47.966;7.958;2024-02-21T10:55:37;3.53;;;2.33;;
2602;SDS011;1311;47.966;7.958;2024-02-21T10:58:07;5.40;;;2.40;;
2602;SDS011;1311;47.966;7.958;2024-02-21T11:00:37;3.33;;;2.23;;
2602;SDS011;1311;47.966;7.958;2024-02-21T11:03:04;4.17;;;2.20;;
2602;SDS011;1311;47.966;7.958;2024-02-21T11:05:31;3.30;;;2.00;;
2602;SDS011;1311;47.966;7.958;2024-02-21T11:07:59;3.00;;;1.80;;
2602;SDS011;1311;47.966;7.958;2024-02-21T11:10:26;4.23;;;1.93;;
2602;SDS011;1311;47.966;7.958;2024-02-21T11:13:04;2.60;;;1.93;;
2602;SDS011;1311;47.966;7.958;2024-02-21T11:15:32;3.87;;;1.60;;
2602;SDS011;1311;47.966;7.958;2024-02-21T11:17:59;3.60;;;1.80;;
2602;SDS011;1311;47.966;7.958;2024-02-21T11:20:32;2.83;;;1.63;;
2602;SDS011;1311;47.966;7.958;2024-02-21T11:22:59;3.57;;;2.37;;
2602;SDS011;1311;47.966;7.958;2024-02-21T11:25:27;3.93;;;1.40;;
2602;SDS011;1311;47.966;7.958;2024-02-21T11:28:03;3.40;;;1.80;;
2602;SDS011;1311;47.966;7.958;2024-02-21T11:30:32;5.00;;;1.63;;
2602;SDS011;1311;47.966;7.958;2024-02-21T11:33:01;1.90;;;1.40;;
2602;SDS011;1311;47.966;7.958;2024-02-21T11:35:31;3.70;;;1.53;;
2602;SDS011;1311;47.966;7.958;2024-02-21T11:38:09;2.77;;;1.67;;
2602;SDS011;1311;47.966;7.958;2024-02-21T11:40:39;2.90;;;1.70;;
2602;SDS011;1311;47.966;7.958;2024-02-21T11:43:08;3.93;;;1.80;;
2602;SDS011;1311;47.966;7.958;2024-02-21T11:45:34;4.43;;;1.67;;
2602;SDS011;1311;47.966;7.958;2024-02-21T11:48:01;4.83;;;2.37;;
2602;SDS011;1311;47.966;7.958;2024-02-21T11:50:30;5.20;;;2.07;;
2602;SDS011;1311;47.966;7.958;2024-02-21T11:52:57;2.83;;;1.90;;
2602;SDS011;1311;47.966;7.958;2024-02-21T11:55:24;3.80;;;1.33;;
2602;SDS011;1311;47.966;7.958;2024-02-21T11:57:51;1.57;;;1.33;;
2602;SDS011;1311;47.966;7.958;2024-02-21T12:00:19;5.97;;;1.40;;
2602;SDS011;1311;47.966;7.958;2024-02-21T12:02:47;1.37;;;1.20;;
2602;SDS011;1311;47.966;7.958;2024-02-21T12:05:15;3.93;;;1.20;;
2602;SDS011;1311;47.966;7.958;2024-02-21T12:07:42;2.23;;;1.07;;
2602;SDS011;1311;47.966;7.958;2024-02-21T12:10:09;1.50;;;1.10;;
2602;SDS011;1311;47.966;7.958;2024-02-21T12:12:37;2.43;;;1.10;;
2602;SDS011;1311;47.966;7.958;2024-02-21T12:15:04;2.83;;;1.30;;
2602;SDS011;1311;47.966;7.958;2024-02-21T12:17:34;1.97;;;1.17;;
2602;SDS011;1311;47.966;7.958;2024-02-21T12:20:01;1.87;;;0.83;;
2602;SDS011;1311;47.966;7.958;2024-02-21T12:22:30;1.43;;;1.20;;
2602;SDS011;1311;47.966;7.958;2024-02-21T12:24:58;2.00;;;1.10;;
2602;SDS011;1311;47.966;7.958;2024-02-21T12:27:26;1.63;;;1.10;;
2602;SDS011;1311;47.966;7.958;2024-02-21T12:29:54;2.10;;;1.30;;
2602;SDS011;1311;47.966;7.958;2024-02-21T12:32:20;3.53;;;1.27;;
2602;SDS011;1311;47.966;7.958;2024-02-21T12:34:48;1.60;;;1.47;;
2602;SDS011;1311;47.966;7.958;2024-02-21T12:37:15;3.73;;;1.40;;
2602;SDS011;1311;47.966;7.958;2024-02-21T12:39:42;1.17;;;1.00;;
2602;SDS011;1311;47.966;7.958;2024-02-21T12:42:09;1.70;;;1.30;;
2602;SDS011;1311;47.966;7.958;2024-02-21T12:44:37;2.07;;;1.33;;
2602;SDS011;1311;47.966;7.958;2024-02-21T12:47:03;2.17;;;1.53;;
2602;SDS011;1311;47.966;7.958;2024-02-21T12:49:30;2.13;;;1.10;;
2602;SDS011;1311;47.966;7.958;2024-02-21T12:51:58;2.87;;;1.30;;
2602;SDS011;1311;47.966;7.958;2024-02-21T12:54:25;2.10;;;1.00;;
2602;SDS011;1311;47.966;7.958;2024-02-21T12:56:52;2.53;;;1.20;;
2602;SDS011;1311;47.966;7.958;2024-02-21T12:59:19;2.20;;;0.80;;
2602;SDS011;1311;47.966;7.958;2024-02-21T13:01:46;2.10;;;1.00;;
2602;SDS011;1311;47.966;7.958;2024-02-21T13:04:12;2.20;;;0.90;;
2602;SDS011;1311;47.966;7.958;2024-02-21T13:06:39;1.90;;;1.17;;
2602;SDS011;1311;47.966;7.958;2024-02-21T13:09:07;2.40;;;1.20;;
2602;SDS011;1311;47.966;7.958;2024-02-21T13:11:36;1.90;;;1.27;;
2602;SDS011;1311;47.966;7.958;2024-02-21T13:14:03;2.90;;;1.30;;
2602;SDS011;1311;47.966;7.958;2024-02-21T13:16:29;2.37;;;1.20;;
2602;SDS011;1311;47.966;7.958;2024-02-21T13:18:56;2.90;;;2.00;;
2602;SDS011;1311;47.966;7.958;2024-02-21T13:21:23;3.10;;;2.87;;
2602;SDS011;1311;47.966;7.958;2024-02-21T13:23:49;2.77;;;1.47;;
2602;SDS011;1311;47.966;7.958;2024-02-21T13:26:17;2.70;;;1.50;;
2602;SDS011;1311;47.966;7.958;2024-02-21T13:28:45;1.30;;;1.07;;
2602;SDS011;1311;47.966;7.958;2024-02-21T13:31:13;2.90;;;1.27;;
2602;SDS011;1311;47.966;7.958;2024-02-21T13:33:41;3.23;;;2.00;;
2602;SDS011;1311;47.966;7.958;2024-02-21T13:36:09;2.30;;;1.20;;
2602;SDS011;1311;47.966;7.958;2024-02-21T13:38:36;2.27;;;1.40;;
2602;SDS011;1311;47.966;7.958;2024-02-21T13:41:04;1.50;;;1.07;;
2602;SDS011;1311;47.966;7.958;2024-02-21T13:43:32;4.60;;;2.10;;
2602;SDS011;1311;47.966;7.958;2024-02-21T13:46:00;2.10;;;1.57;;
2602;SDS011;1311;47.966;7.958;2024-02-21T13:48:27;3.00;;;1.60;;
2602;SDS011;1311;47.966;7.958;2024-02-21T13:50:55;3.40;;;1.10;;
2602;SDS011;1311;47.966;7.958;2024-02-21T13:53:21;2.43;;;1.20;;
2602;SDS011;1311;47.966;7.958;2024-02-21T13:55:48;1.80;;;1.17;;
2602;SDS011;1311;47.966;7.958;2024-02-21T13:58:16;3.40;;;1.10;;
2602;SDS011;1311;47.966;7.958;2024-02-21T14:00:44;2.57;;;1.30;;
2602;SDS011;1311;47.966;7.958;2024-02-21T14:03:11;2.17;;;1.10;;
2602;SDS011;1311;47.966;7.958;2024-02-21T14:05:38;1.43;;;1.07;;
2602;SDS011;1311;47.966;7.958;2024-02-21T14:08:05;1.67;;;1.10;;
2602;SDS011;1311;47.966;7.958;2024-02-21T14:10:32;1.73;;;1.00;;
2602;SDS011;1311;47.966;7.958;2024-02-21T14:12:59;1.37;;;1.10;;
2602;SDS011;1311;47.966;7.958;2024-02-21T14:15:26;2.40;;;1.30;;
2602;SDS011;1311;47.966;7.958;2024-02-21T14:17:54;0.90;;;0.73;;
2602;SDS011;1311;47.966;7.958;2024-02-21T14:20:21;2.73;;;1.10;;
2602;SDS011;1311;47.966;7.958;2024-02-21T14:22:48;3.63;;;1.27;;
2602;SDS011;1311;47.966;7.958;2024-02-21T14:25:14;4.00;;;1.40;;
2602;SDS011;1311;47.966;7.958;2024-02-21T14:27:41;3.80;;;1.40;;
2602;SDS011;1311;47.966;7.958;2024-02-21T14:30:09;1.10;;;1.00;;
2602;SDS011;1311;47.966;7.958;2024-02-21T14:32:36;2.03;;;1.37;;
2602;SDS011;1311;47.966;7.958;2024-02-21T14:35:04;3.43;;;1.60;;
2602;SDS011;1311;47.966;7.958;2024-02-21T14:37:32;3.20;;;2.00;;
2602;SDS011;1311;47.966;7.958;2024-02-21T14:39:58;1.70;;;1.60;;
2602;SDS011;1311;47.966;7.958;2024-02-21T14:42:26;3.33;;;1.50;;
2602;SDS011;1311;47.966;7.958;2024-02-21T14:44:53;1.83;;;1.57;;
2602;SDS011;1311;47.966;7.958;2024-02-21T14:47:28;2.33;;;1.30;;
2602;SDS011;1311;47.966;7.958;2024-02-21T14:49:55;2.97;;;1.70;;
2602;SDS011;1311;47.966;7.958;2024-02-21T14:52:23;2.37;;;1.57;;
2602;SDS011;1311;47.966;7.958;2024-02-21T14:54:52;1.87;;;1.30;;
2602;SDS011;1311;47.966;7.958;2024-02-21T14:57:19;1.40;;;1.23;;
2602;SDS011;1311;47.966;7.958;2024-02-21T14:59:46;2.40;;;1.20;;
2602;SDS011;1311;47.966;7.958;2024-02-21T15:02:14;1.57;;;1.03;;
2602;SDS011;1311;47.966;7.958;2024-02-21T15:04:41;3.00;;;1.30;;
2602;SDS011;1311;47.966;7.958;2024-02-21T15:07:08;1.87;;;1.10;;
2602;SDS011;1311;47.966;7.958;2024-02-21T15:09:36;2.10;;;1.17;;
2602;SDS011;1311;47.966;7.958;2024-02-21T15:12:03;1.40;;;1.30;;
2602;SDS011;1311;47.966;7.958;2024-02-21T15:14:31;3.03;;;1.67;;
2602;SDS011;1311;47.966;7.958;2024-02-21T15:16:58;1.37;;;1.13;;
2602;SDS011;1311;47.966;7.958;2024-02-21T15:19:24;2.37;;;1.50;;